Time;durP1;ratioP1;P1;durP2;ratioP2;P2;SDS_P1;SDS_P2;PMS_P1;PMS_P2;Temp;Humidity;BMP_temperature;BMP_pressure;BME280_temperature;BME280_humidity;BME280_pressure;Samples;Min_cycle;Max_cycle;Signal;HPM_P1;HPM_P2
2022/01/31 00:02:29;;;;;;;13.58;2.75;;;;;;;1.47;74.52;100424.30;1601169;87;20972;-69
2022/01/31 00:05:14;;;;;;;24.45;4.80;;;;;;;1.45;74.49;100420.86;1629425;86;20906;-69
2022/01/31 00:07:58;;;;;;;21.55;4.62;;;;;;;1.44;74.50;100427.20;1619309;87;20954;-70
2022/01/31 00:10:42;;;;;;;15.20;3.12;;;;;;;1.41;74.50;100428.41;1618431;87;20971;-70
2022/01/31 00:13:37;;;;;;;18.75;3.85;;;;;;;1.38;74.54;100433.04;1595060;88;20936;-70
2022/01/31 00:16:24;;;;;;;18.23;3.62;;;;;;;1.39;74.54;100430.08;1628435;86;20982;-69
2022/01/31 00:19:05;;;;;;;;;;;;;;;1.36;74.59;100422.38;1642744;85;20944;-69
2022/01/31 00:21:49;;;;;;;12.03;2.58;;;;;;;1.35;74.63;100422.80;1639508;87;20110;-69
2022/01/31 00:24:34;;;;;;;19.32;3.47;;;;;;;1.32;74.57;100403.64;1650709;86;21800;-69
2022/01/31 00:27:18;;;;;;;26.00;4.58;;;;;;;1.29;74.59;100384.06;1616548;86;21377;-69
2022/01/31 00:30:05;;;;;;;19.25;3.98;;;;;;;1.27;74.64;100387.00;1621873;88;20984;-69
2022/01/31 00:32:49;;;;;;;22.87;4.12;;;;;;;1.24;74.65;100380.58;1630824;87;20927;-69
2022/01/31 00:35:34;;;;;;;25.08;3.92;;;;;;;1.23;74.63;100389.05;1646206;85;20913;-69
2022/01/31 00:38:18;;;;;;;22.05;3.77;;;;;;;1.21;74.68;100388.58;1650705;86;20966;-70
2022/01/31 00:41:04;;;;;;;19.90;4.40;;;;;;;1.19;74.71;100376.23;1637105;86;20967;-70
2022/01/31 00:44:01;;;;;;;20.55;3.98;;;;;;;1.18;74.72;100387.25;1633457;87;20931;-70
2022/01/31 00:46:59;;;;;;;13.78;3.62;;;;;;;1.15;74.75;100376.59;1654226;85;20922;-70
2022/01/31 00:49:38;;;;;;;15.08;4.17;;;;;;;1.13;74.75;100371.88;1664749;85;20956;-69
2022/01/31 00:52:22;;;;;;;32.28;6.75;;;;;;;1.11;74.79;100377.78;1647752;87;21427;-69
2022/01/31 00:55:10;;;;;;;17.60;3.30;;;;;;;1.09;74.85;100375.62;1639012;87;20964;-69
2022/01/31 00:57:54;;;;;;;22.90;3.92;;;;;;;1.07;74.84;100383.23;1663288;85;20976;-70
2022/01/31 01:00:38;;;;;;;21.05;4.20;;;;;;;1.07;74.89;100382.37;1622230;86;20939;-69
2022/01/31 01:03:22;;;;;;;17.55;3.52;;;;;;;1.04;74.89;100378.52;1620926;88;20979;-69
2022/01/31 01:06:07;;;;;;;26.82;5.10;;;;;;;1.03;74.85;100372.58;1647582;85;20980;-69
2022/01/31 01:08:51;;;;;;;15.85;4.37;;;;;;;1.01;74.88;100369.14;1637034;85;20976;-69
2022/01/31 01:11:35;;;;;;;19.80;4.30;;;;;;;0.99;74.91;100372.94;1640786;86;20936;-69
2022/01/31 01:14:20;;;;;;;18.65;4.10;;;;;;;0.96;74.94;100371.60;1621096;87;20944;-69
2022/01/31 01:17:04;;;;;;;20.20;3.65;;;;;;;0.97;74.93;100364.83;1626633;85;20975;-69
2022/01/31 01:19:49;;;;;;;20.57;3.75;;;;;;;0.94;74.97;100359.67;1638366;87;21479;-69
2022/01/31 01:22:33;;;;;;;19.05;3.33;;;;;;;0.93;75.02;100357.55;1632641;87;20996;-69
2022/01/31 01:25:18;;;;;;;23.92;4.42;;;;;;;0.90;74.98;100354.94;1640833;85;20914;-69
2022/01/31 01:28:02;;;;;;;28.98;3.58;;;;;;;0.88;74.99;100345.56;1656080;85;20970;-69
2022/01/31 01:30:47;;;;;;;15.75;3.08;;;;;;;0.85;75.04;100354.00;1653173;85;21443;-69
2022/01/31 01:33:38;;;;;;;19.63;3.43;;;;;;;0.84;75.10;100355.23;1621228;87;21381;-69
2022/01/31 01:36:20;;;;;;;;;;;;;;;0.83;75.05;100357.34;1626311;87;20954;-69
2022/01/31 01:39:04;;;;;;;16.30;3.27;;;;;;;0.81;75.21;100357.72;1642465;87;20440;-70
2022/01/31 01:41:48;;;;;;;15.98;3.12;;;;;;;0.78;75.15;100353.44;1602218;85;20979;-70
2022/01/31 01:44:50;;;;;;;15.72;2.77;;;;;;;0.77;75.10;100362.31;1617042;87;20967;-70
2022/01/31 01:47:35;;;;;;;15.03;2.95;;;;;;;0.74;75.14;100360.56;1636662;86;20991;-69
2022/01/31 01:50:19;;;;;;;19.90;3.50;;;;;;;0.73;75.18;100351.63;1647047;87;20932;-69
2022/01/31 01:53:05;;;;;;;19.15;3.47;;;;;;;0.72;75.15;100348.64;1644751;85;20950;-69
2022/01/31 01:55:53;;;;;;;21.95;2.95;;;;;;;0.71;75.17;100346.92;1636649;87;20935;-70
2022/01/31 01:58:39;;;;;;;13.98;2.92;;;;;;;0.71;75.21;100330.38;1623376;87;20964;-70
2022/01/31 02:01:23;;;;;;;;;;;;;;;0.72;75.27;100331.69;1658865;85;20922;-70
2022/01/31 02:04:07;;;;;;;20.72;4.12;;;;;;;0.73;75.39;100330.86;1628561;86;20104;-69
2022/01/31 02:06:52;;;;;;;13.08;2.72;;;;;;;0.73;75.32;100323.22;1621327;88;20944;-69
2022/01/31 02:09:44;;;;;;;21.57;3.75;;;;;;;0.73;75.31;100323.64;1621443;87;20943;-69
2022/01/31 02:12:39;;;;;;;14.15;3.37;;;;;;;0.71;75.31;100315.98;1649646;85;21408;-69
2022/01/31 02:15:25;;;;;;;16.12;2.90;;;;;;;0.71;75.33;100314.70;1646652;87;20963;-69
2022/01/31 02:18:11;;;;;;;15.68;4.87;;;;;;;0.71;75.32;100313.43;1622290;87;20936;-69
2022/01/31 02:20:55;;;;;;;19.02;3.35;;;;;;;0.71;75.38;100306.21;1605134;88;20938;-69
2022/01/31 02:23:40;;;;;;;13.35;4.33;;;;;;;0.71;75.36;100311.30;1612032;87;20943;-69
2022/01/31 02:26:24;;;;;;;18.23;4.08;;;;;;;0.69;75.33;100308.73;1613419;86;21465;-69
2022/01/31 02:29:11;;;;;;;15.15;3.25;;;;;;;0.69;75.32;100296.42;1629401;86;20990;-69
2022/01/31 02:31:56;;;;;;;21.70;4.08;;;;;;;0.65;75.36;100295.09;1615039;88;20995;-69
2022/01/31 02:34:40;;;;;;;13.35;3.33;;;;;;;0.64;75.44;100288.28;1599266;88;20955;-69
2022/01/31 02:37:24;;;;;;;12.98;3.08;;;;;;;0.64;75.43;100279.80;1599311;88;20976;-69
2022/01/31 02:40:09;;;;;;;16.37;2.60;;;;;;;0.64;75.44;100274.29;1603593;87;20932;-69
2022/01/31 02:42:54;;;;;;;10.53;2.73;;;;;;;0.53;75.26;100255.42;1598391;89;21491;-69
2022/01/31 02:45:39;;;;;;;18.07;3.75;;;;;;;0.53;75.26;100255.42;1581623;88;21423;-69
2022/01/31 02:48:25;;;;;;;14.65;3.35;;;;;;;0.63;75.50;100269.17;1601036;88;20939;-69
2022/01/31 02:51:10;;;;;;;17.10;3.50;;;;;;;0.61;75.45;100267.02;1599213;89;20999;-69
2022/01/31 02:53:55;;;;;;;17.23;4.27;;;;;;;0.59;75.46;100266.12;1599268;89;20939;-69
2022/01/31 02:56:40;;;;;;;21.85;3.85;;;;;;;0.57;75.48;100266.10;1599537;88;21707;-69
2022/01/31 02:59:24;;;;;;;23.42;4.15;;;;;;;0.57;75.55;100254.66;1599338;87;20955;-69
2022/01/31 03:02:09;;;;;;;15.70;4.08;;;;;;;0.56;75.54;100241.48;1599132;88;21470;-69
2022/01/31 03:04:53;;;;;;;22.40;5.80;;;;;;;0.56;75.54;100241.91;1624204;88;20953;-70
2022/01/31 03:07:38;;;;;;;15.48;4.30;;;;;;;0.54;75.60;100238.06;1632892;87;21780;-70
2022/01/31 03:10:22;;;;;;;18.57;4.08;;;;;;;0.55;75.61;100233.42;1627601;87;20987;-69
2022/01/31 03:13:07;;;;;;;18.95;5.08;;;;;;;0.55;75.61;100225.78;1579029;89;20995;-69
2022/01/31 03:15:52;;;;;;;19.90;4.83;;;;;;;0.56;75.63;100222.83;1610177;87;20952;-69
2022/01/31 03:18:36;;;;;;;14.68;4.60;;;;;;;0.54;75.60;100211.35;1603919;88;20947;-69
2022/01/31 03:21:21;;;;;;;20.40;4.53;;;;;;;0.53;75.69;100203.28;1598523;88;20964;-69
2022/01/31 03:24:06;;;;;;;22.10;6.35;;;;;;;0.54;75.65;100199.05;1588131;89;21447;-69
2022/01/31 03:26:50;;;;;;;19.95;4.40;;;;;;;0.54;75.64;100200.32;1598322;89;20979;-69
2022/01/31 03:29:35;;;;;;;15.23;4.25;;;;;;;0.54;75.70;100186.33;1597889;89;21527;-69
2022/01/31 03:32:19;;;;;;;17.12;4.42;;;;;;;0.53;75.73;100184.20;1611487;87;20972;-69
2022/01/31 03:35:07;;;;;;;23.60;5.33;;;;;;;0.54;75.65;100178.70;1561455;89;20983;-69
2022/01/31 03:37:51;;;;;;;20.50;4.35;;;;;;;0.54;75.72;100170.66;1599165;89;20939;-70
2022/01/31 03:40:36;;;;;;;18.80;3.87;;;;;;;0.56;75.70;100162.63;1579655;89;20988;-69
2022/01/31 03:43:20;;;;;;;15.03;4.90;;;;;;;0.57;75.74;100168.16;1598161;89;21488;-69
2022/01/31 03:46:06;;;;;;;14.15;4.58;;;;;;;0.58;75.73;100162.66;1604585;88;20915;-70
2022/01/31 03:48:50;;;;;;;25.55;4.60;;;;;;;0.58;75.76;100148.25;1604307;88;20964;-69
2022/01/31 03:51:35;;;;;;;18.80;5.25;;;;;;;0.61;75.79;100146.17;1625262;87;21501;-69
2022/01/31 03:54:19;;;;;;;22.45;4.45;;;;;;;0.62;75.79;100138.56;1599321;87;21441;-69
2022/01/31 03:57:04;;;;;;;16.25;3.95;;;;;;;0.65;75.79;100137.34;1581623;88;21074;-69
2022/01/31 03:59:49;;;;;;;18.62;3.90;;;;;;;0.66;75.82;100126.34;1595817;88;21460;-69
2022/01/31 04:02:34;;;;;;;14.25;3.37;;;;;;;0.66;75.79;100126.34;1616358;86;21118;-69
2022/01/31 04:05:18;;;;;;;13.68;3.70;;;;;;;0.66;75.78;100127.61;1598367;86;21122;-69
2022/01/31 04:08:05;;;;;;;20.55;3.83;;;;;;;0.67;75.84;100128.47;1618947;86;21095;-69
2022/01/31 04:10:48;;;;;;;;;;;;;;;0.66;75.81;100123.80;1607342;89;20957;-69
2022/01/31 04:13:33;;;;;;;19.50;3.40;;;;;;;0.68;75.88;100119.14;1561042;89;20140;-69
2022/01/31 04:16:17;;;;;;;16.75;3.00;;;;;;;0.68;75.83;100119.14;1566759;89;20973;-69
2022/01/31 04:19:02;;;;;;;19.30;3.75;;;;;;;0.66;75.84;100112.77;1591179;88;21474;-69
2022/01/31 04:21:46;;;;;;;13.20;3.10;;;;;;;0.66;75.87;100109.80;1602457;87;21453;-69
2022/01/31 04:24:34;;;;;;;18.02;3.75;;;;;;;0.66;75.83;100111.08;1593983;88;20967;-69
2022/01/31 04:27:19;;;;;;;12.28;2.85;;;;;;;0.66;75.84;100109.80;1636442;86;20975;-69
2022/01/31 04:30:06;;;;;;;;;;;;;;;0.68;75.90;100094.56;1616629;87;20955;-69
2022/01/31 04:32:49;;;;;;;15.90;3.65;;;;;;;0.69;75.91;100089.05;1617852;86;20115;-69
2022/01/31 04:35:34;;;;;;;17.32;2.92;;;;;;;0.68;75.87;100094.56;1619289;86;20982;-69
2022/01/31 04:38:19;;;;;;;14.53;3.40;;;;;;;0.68;75.92;100078.02;1624472;86;20976;-69
2022/01/31 04:41:04;;;;;;;16.62;3.80;;;;;;;0.68;75.92;100080.56;1622589;86;21006;-69
2022/01/31 04:43:50;;;;;;;16.30;4.25;;;;;;;0.68;75.88;100076.75;1614313;86;21063;-69
2022/01/31 04:46:35;;;;;;;17.10;3.70;;;;;;;0.66;75.88;100078.00;1622966;86;20991;-69
2022/01/31 04:49:20;;;;;;;12.23;3.37;;;;;;;0.68;75.93;100077.16;1623251;86;20986;-69
2022/01/31 04:52:05;;;;;;;21.80;3.85;;;;;;;0.68;75.95;100075.48;1625330;87;20924;-69
2022/01/31 04:54:49;;;;;;;21.12;4.05;;;;;;;0.68;75.91;100079.71;1617537;87;20963;-70
2022/01/31 04:57:33;;;;;;;17.05;3.52;;;;;;;0.68;75.96;100076.75;1610270;87;20940;-69
2022/01/31 05:00:18;;;;;;;15.90;3.75;;;;;;;0.68;75.95;100075.48;1607346;88;21428;-69
2022/01/31 05:03:08;;;;;;;16.80;3.65;;;;;;;0.67;75.95;100071.22;1574962;89;21043;-69
2022/01/31 05:05:49;;;;;;;16.65;4.10;;;;;;;0.69;75.97;100072.52;1599487;89;20957;-69
2022/01/31 05:08:35;;;;;;;16.55;4.92;;;;;;;0.67;75.93;100068.67;1599206;89;20943;-69
2022/01/31 05:11:19;;;;;;;27.20;5.92;;;;;;;0.66;75.93;100061.88;1629965;87;20915;-69
2022/01/31 05:14:04;;;;;;;17.95;5.42;;;;;;;0.65;76.00;100058.48;1609759;88;20955;-69
2022/01/31 05:16:48;;;;;;;15.78;5.20;;;;;;;0.65;75.98;100051.27;1610154;87;20979;-69
2022/01/31 05:19:32;;;;;;;12.33;4.75;;;;;;;0.64;76.02;100050.82;1618030;88;20966;-69
2022/01/31 05:22:16;;;;;;;14.47;4.45;;;;;;;0.62;75.98;100041.89;1623578;86;21428;-69
2022/01/31 05:25:01;;;;;;;16.97;3.92;;;;;;;0.61;76.04;100031.28;1604680;88;21411;-69
2022/01/31 05:27:45;;;;;;;26.62;5.45;;;;;;;0.62;76.02;100034.68;1622352;86;20940;-69
2022/01/31 05:30:29;;;;;;;19.67;4.08;;;;;;;0.61;76.02;100035.09;1628035;86;20982;-69
2022/01/31 05:33:14;;;;;;;21.65;4.58;;;;;;;0.59;76.02;100027.86;1638658;85;20906;-69
2022/01/31 05:35:58;;;;;;;20.43;4.83;;;;;;;0.59;76.04;100021.50;1641530;85;21427;-69
2022/01/31 05:38:44;;;;;;;14.47;4.10;;;;;;;0.59;76.08;100022.77;1642182;85;20918;-69
2022/01/31 05:41:28;;;;;;;19.23;5.43;;;;;;;0.58;76.10;100013.84;1671317;84;20923;-69
2022/01/31 05:44:12;;;;;;;21.48;5.97;;;;;;;0.60;76.16;100012.18;1642097;85;21660;-69
2022/01/31 05:46:57;;;;;;;21.20;4.67;;;;;;;0.61;76.10;100012.62;1679022;83;20954;-70
2022/01/31 05:49:41;;;;;;;22.58;5.25;;;;;;;0.62;76.17;100012.64;1662192;83;21568;-68
2022/01/31 05:52:26;;;;;;;33.63;7.00;;;;;;;0.63;76.16;100004.17;1651821;86;20914;-69
2022/01/31 05:55:11;;;;;;;19.60;6.05;;;;;;;0.62;76.16;100003.73;1674442;84;20961;-69
2022/01/31 05:57:55;;;;;;;25.55;6.80;;;;;;;0.64;76.20;100008.84;1670578;84;20918;-68
2022/01/31 06:00:39;;;;;;;23.52;5.58;;;;;;;0.65;76.21;100002.92;1673786;85;20942;-69
2022/01/31 06:03:23;;;;;;;33.08;7.25;;;;;;;0.65;76.21;100001.23;1655581;85;20937;-68
2022/01/31 06:06:08;;;;;;;23.55;5.87;;;;;;;0.65;76.22;100001.23;1667400;83;20913;-69
2022/01/31 06:08:52;;;;;;;25.68;5.37;;;;;;;0.65;76.21;99986.38;1642607;85;20926;-69
2022/01/31 06:11:37;;;;;;;18.92;5.37;;;;;;;0.66;76.28;99984.28;1670273;85;20926;-68
2022/01/31 06:14:22;;;;;;;21.15;5.78;;;;;;;0.68;76.25;99980.48;1678670;85;20914;-68
2022/01/31 06:17:06;;;;;;;20.40;5.60;;;;;;;0.68;76.31;99979.21;1667688;84;20974;-68
2022/01/31 06:19:51;;;;;;;24.92;4.92;;;;;;;0.70;76.30;99973.73;1669512;83;21093;-68
2022/01/31 06:22:35;;;;;;;24.52;6.37;;;;;;;0.69;76.32;99969.48;1676000;83;21100;-68
2022/01/31 06:25:20;;;;;;;24.87;5.25;;;;;;;0.70;76.28;99972.45;1653986;84;21530;-70
2022/01/31 06:28:06;;;;;;;31.02;6.92;;;;;;;0.70;76.33;99959.73;1665746;84;21419;-70
2022/01/31 06:30:51;;;;;;;28.42;6.50;;;;;;;0.71;76.34;99955.94;1675259;83;21414;-70
2022/01/31 06:33:35;;;;;;;21.68;7.30;;;;;;;0.71;76.35;99950.00;1668720;84;20943;-70
2022/01/31 06:36:22;;;;;;;29.52;5.95;;;;;;;0.70;76.37;99945.74;1682257;84;20949;-70
2022/01/31 06:39:07;;;;;;;16.80;4.90;;;;;;;0.72;76.42;99937.71;1675197;84;20938;-70
2022/01/31 06:41:52;;;;;;;13.98;3.10;;;;;;;0.74;76.37;99938.59;1638376;85;21561;-70
2022/01/31 06:44:37;;;;;;;12.03;3.62;;;;;;;0.73;76.41;99930.10;1667134;84;21778;-70
2022/01/31 06:47:21;;;;;;;22.70;5.58;;;;;;;0.73;76.46;99930.10;1646509;85;20939;-70
2022/01/31 06:50:07;;;;;;;22.02;4.92;;;;;;;0.75;76.48;99927.58;1669380;83;20961;-70
2022/01/31 06:52:55;;;;;;;18.48;5.70;;;;;;;0.76;76.45;99926.73;1639220;86;20971;-70
2022/01/31 06:55:38;;;;;;;15.88;3.95;;;;;;;0.77;76.49;99914.45;1673556;84;20955;-70
2022/01/31 06:58:24;;;;;;;12.68;4.05;;;;;;;0.79;76.48;99913.64;1673715;83;20906;-70
2022/01/31 07:01:08;;;;;;;21.68;6.42;;;;;;;0.80;76.52;99915.34;1675344;83;21543;-70
2022/01/31 07:03:54;;;;;;;23.60;7.80;;;;;;;0.78;76.48;99913.20;1641687;85;20934;-70
2022/01/31 07:06:38;;;;;;;;;;;;;;;0.79;76.52;99902.19;1673225;84;21420;-70
2022/01/31 07:09:23;;;;;;;24.87;9.15;;;;;;;0.79;76.59;99904.73;1653909;83;408587;-70
2022/01/31 07:12:10;;;;;;;18.87;8.28;;;;;;;0.81;76.54;99889.48;1671881;83;20956;-70
2022/01/31 07:14:54;;;;;;;22.73;8.10;;;;;;;;;;1674793;84;20942;-70
2022/01/31 07:17:40;;;;;;;25.68;7.65;;;;;;;0.83;76.62;99877.21;1673663;83;21295;-72
2022/01/31 07:20:36;;;;;;;23.50;8.33;;;;;;;0.85;76.63;99878.50;1671907;84;20956;-70
2022/01/31 07:23:17;;;;;;;;;;;;;;;0.89;76.69;99872.19;1669356;84;22227;-70
2022/01/31 07:25:57;;;;;;;19.25;6.65;;;;;;;0.92;76.73;99865.01;1632205;87;20196;-71
2022/01/31 07:28:43;;;;;;;17.80;6.00;;;;;;;0.94;76.77;99868.01;1666221;85;21073;-71
2022/01/31 07:31:28;;;;;;;14.65;6.22;;;;;;;0.99;76.80;99876.55;1668034;83;21114;-70
2022/01/31 07:34:15;;;;;;;22.58;6.40;;;;;;;1.03;76.78;99873.61;1639862;85;21062;-70
2022/01/31 07:36:59;;;;;;;20.72;5.60;;;;;;;1.06;76.78;99873.61;1672063;83;21453;-70
2022/01/31 07:39:44;;;;;;;21.60;4.90;;;;;;;1.08;76.79;99873.21;1670956;83;21425;-70
2022/01/31 07:42:29;;;;;;;18.27;5.20;;;;;;;1.12;76.80;99869.00;1662802;83;21078;-70
2022/01/31 07:45:14;;;;;;;21.05;5.00;;;;;;;1.15;76.80;99865.22;1667387;84;21118;-70
2022/01/31 07:47:59;;;;;;;17.73;5.53;;;;;;;1.18;76.87;99871.61;1665191;84;21126;-70
2022/01/31 07:50:43;;;;;;;17.55;5.40;;;;;;;1.21;76.87;99867.83;1670244;84;21077;-70
2022/01/31 07:53:27;;;;;;;13.95;5.08;;;;;;;1.23;76.90;99869.97;1667061;84;21126;-70
2022/01/31 07:56:15;;;;;;;17.67;4.95;;;;;;;1.26;76.90;99872.13;1664022;83;21110;-71
2022/01/31 07:58:59;;;;;;;17.98;4.20;;;;;;;1.30;76.93;99865.37;1665065;84;20986;-70
2022/01/31 08:01:43;;;;;;;16.85;4.40;;;;;;;1.33;76.90;99864.97;1661288;83;21081;-71
2022/01/31 08:04:28;;;;;;;18.27;5.20;;;;;;;1.37;76.92;99863.73;1629422;85;21100;-71
2022/01/31 08:07:12;;;;;;;26.35;5.72;;;;;;;1.40;76.94;99859.52;1661617;84;21079;-70
2022/01/31 08:09:57;;;;;;;25.43;5.95;;;;;;;1.43;76.90;99859.97;1634138;85;21105;-70
2022/01/31 08:12:44;;;;;;;17.87;5.28;;;;;;;1.44;76.90;99857.85;1666102;84;21187;-71
2022/01/31 08:15:30;;;;;;;22.17;4.83;;;;;;;1.46;76.95;99848.53;1661891;84;22162;-70
2022/01/31 08:18:15;;;;;;;18.43;4.87;;;;;;;1.50;76.99;99846.44;1666523;83;21539;-70
2022/01/31 08:21:00;;;;;;;16.73;4.85;;;;;;;1.51;76.97;99847.73;1663899;84;20949;-70
2022/01/31 08:23:45;;;;;;;19.07;4.92;;;;;;;1.55;77.01;99840.96;1656350;84;20993;-71
2022/01/31 08:26:30;;;;;;;23.12;5.10;;;;;;;1.59;77.05;99838.84;1667036;83;20969;-71
2022/01/31 08:29:29;;;;;;;20.45;5.75;;;;;;;1.63;77.06;99841.42;1670386;83;21908;-70
2022/01/31 08:32:32;;;;;;;20.50;5.10;;;;;;;1.66;77.01;99838.90;1672462;83;21273;-70
2022/01/31 08:37:59;;;;;;;19.48;5.60;;;;;;;1.69;76.98;99821.50;1659703;84;21103;-70
2022/01/31 08:40:45;;;;;;;16.35;4.83;;;;;;;1.72;77.08;99818.13;1665579;84;21071;-71
2022/01/31 08:43:30;;;;;;;24.50;5.65;;;;;;;1.77;77.11;99817.73;1666836;83;21395;-70
2022/01/31 08:46:15;;;;;;;18.65;5.35;;;;;;;1.81;77.13;99810.13;1667016;83;21886;-70
2022/01/31 08:48:59;;;;;;;23.52;6.28;;;;;;;1.88;77.17;99808.47;1662311;84;21103;-70
2022/01/31 08:51:45;;;;;;;22.98;5.90;;;;;;;1.91;77.13;99805.51;1668938;83;21573;-70
2022/01/31 08:54:30;;;;;;;22.05;5.80;;;;;;;1.95;77.17;99807.23;1664664;83;21107;-71
2022/01/31 08:57:15;;;;;;;19.42;6.28;;;;;;;1.99;77.09;99802.59;1638557;85;21727;-70
2022/01/31 09:00:01;;;;;;;19.80;6.42;;;;;;;2.03;77.12;99801.33;1665163;83;21427;-70
2022/01/31 09:03:01;;;;;;;29.92;7.50;;;;;;;2.05;77.17;99797.94;1666174;83;24697;-70
2022/01/31 09:05:35;;;;;;;25.02;6.75;;;;;;;2.10;77.17;99791.14;1663821;84;21126;-71
2022/01/31 09:08:20;;;;;;;23.45;6.20;;;;;;;2.15;77.21;99788.19;1622519;85;21489;-70
2022/01/31 09:11:06;;;;;;;21.48;6.90;;;;;;;2.21;77.19;99794.59;1667495;83;21107;-70
2022/01/31 09:13:52;;;;;;;19.48;5.87;;;;;;;2.23;77.17;99782.70;1666140;83;20937;-71
2022/01/31 09:16:37;;;;;;;25.10;5.90;;;;;;;2.27;77.22;99777.19;1667941;84;21040;-71
2022/01/31 09:19:22;;;;;;;19.23;6.62;;;;;;;2.30;77.18;99778.05;1622393;87;21057;-71
2022/01/31 09:22:07;;;;;;;21.70;6.35;;;;;;;2.34;77.27;99777.64;1640314;84;21501;-71
2022/01/31 09:24:53;;;;;;;22.48;6.00;;;;;;;2.42;77.34;99781.08;1672441;83;21491;-71
2022/01/31 09:27:37;;;;;;;20.30;6.55;;;;;;;2.48;77.32;99777.69;1664838;84;21057;-71
2022/01/31 09:30:22;;;;;;;24.47;5.95;;;;;;;2.53;77.31;99773.03;1673407;83;21075;-71
2022/01/31 09:33:07;;;;;;;27.48;5.75;;;;;;;2.58;77.27;99775.17;1653095;84;21253;-71
2022/01/31 09:35:52;;;;;;;20.23;5.47;;;;;;;2.60;77.26;99779.00;1667978;83;21113;-71
2022/01/31 09:38:36;;;;;;;27.10;6.42;;;;;;;2.63;77.36;99776.43;1664246;84;21052;-71
2022/01/31 09:41:24;;;;;;;18.30;5.85;;;;;;;2.69;77.32;99776.87;1666682;83;21108;-71
2022/01/31 09:49:53;;;;;;;72.37;7.67;;;;;;;2.82;77.37;99776.05;1649133;83;21487;-71
2022/01/31 09:52:38;;;;;;;24.32;5.53;;;;;;;2.85;77.36;99776.91;1667602;83;20917;-70
2022/01/31 09:55:25;;;;;;;18.32;5.50;;;;;;;2.90;77.38;99769.26;1672026;83;20951;-71
2022/01/31 09:58:08;;;;;;;;;;;;;;;2.94;77.42;99760.75;1671881;83;20988;-71
2022/01/31 10:01:10;;;;;;;20.43;6.20;;;;;;;2.98;77.36;99759.91;1670377;83;20103;-70
2022/01/31 10:03:57;;;;;;;22.13;6.42;;;;;;;2.99;77.41;99758.63;1638844;85;21374;-70
2022/01/31 10:06:45;;;;;;;23.52;6.53;;;;;;;3.05;77.42;99760.77;1667711;84;21748;-71
2022/01/31 10:09:33;;;;;;;19.25;5.40;;;;;;;3.10;77.42;99751.41;1664088;84;20938;-71
2022/01/31 10:18:10;;;;;;;22.98;5.37;;;;;;;3.24;77.46;99748.39;1661672;84;21476;-70
2022/01/31 10:20:58;;;;;;;20.20;4.87;;;;;;;3.30;77.52;99746.69;1639294;85;20961;-72
2022/01/31 10:23:43;;;;;;;16.35;5.08;;;;;;;3.37;77.53;99749.23;1673845;83;20980;-71
2022/01/31 10:26:32;;;;;;;18.23;5.55;;;;;;;3.44;77.57;99741.56;1651880;84;21000;-71
2022/01/31 10:29:20;;;;;;;26.10;5.50;;;;;;;3.50;77.55;99744.11;1580379;87;21075;-71
2022/01/31 10:32:10;;;;;;;19.05;4.80;;;;;;;3.53;77.45;99738.15;1638393;86;21405;-71
2022/01/31 10:35:02;;;;;;;21.85;5.22;;;;;;;3.51;77.43;99735.59;1608327;87;20939;-71
2022/01/31 10:37:48;;;;;;;26.05;5.62;;;;;;;3.51;77.49;99731.76;1634542;86;20935;-71
2022/01/31 10:53:04;;;;;;;24.75;5.15;;;;;;;3.73;77.51;99718.91;1609688;87;21125;-70
2022/01/31 10:55:56;;;;;;;21.00;5.67;;;;;;;3.68;77.44;99725.30;1635707;85;21117;-70
2022/01/31 10:59:00;;;;;;;19.17;5.40;;;;;;;3.64;77.47;99717.22;1605307;87;21139;-71
2022/01/31 11:01:54;;;;;;;15.53;4.53;;;;;;;3.65;77.51;99721.48;1606920;87;21074;-71
2022/01/31 11:04:41;;;;;;;26.62;4.78;;;;;;;3.61;77.50;99713.42;1590507;86;20991;-71
2022/01/31 11:07:29;;;;;;;20.88;5.20;;;;;;;3.57;77.46;99724.08;1609406;87;20927;-71
2022/01/31 11:10:17;;;;;;;18.92;4.70;;;;;;;3.57;77.55;99721.95;1590725;89;20989;-71
2022/01/31 11:12:59;;;;;;;;;;;;;;;3.58;77.56;99721.10;1593198;87;21095;-70
2022/01/31 11:15:44;;;;;;;28.77;5.25;;;;;;;3.60;77.51;99721.52;1605794;89;20369;-71
2022/01/31 11:18:32;;;;;;;32.10;5.33;;;;;;;3.57;77.50;99718.13;1638075;86;20982;-71
2022/01/31 11:21:19;;;;;;;23.05;5.00;;;;;;;3.57;77.58;99704.91;1635834;86;21529;-71
2022/01/31 11:24:18;;;;;;;29.30;5.03;;;;;;;3.57;77.56;99715.14;1606172;87;20944;-70
2022/01/31 11:27:14;;;;;;;25.37;4.70;;;;;;;3.59;77.58;99712.58;1608925;87;21941;-71
2022/01/31 11:29:59;;;;;;;22.73;6.47;;;;;;;3.56;77.50;99707.05;1619346;86;20975;-71
2022/01/31 11:32:45;;;;;;;22.70;4.78;;;;;;;3.57;77.64;99702.78;1624357;87;20991;-71
2022/01/31 11:35:30;;;;;;;20.40;5.37;;;;;;;3.58;77.59;99698.09;1623870;86;20964;-71
2022/01/31 11:38:17;;;;;;;19.40;5.28;;;;;;;3.58;77.57;99692.98;1622497;87;21556;-70
2022/01/31 11:41:03;;;;;;;;;;;;;;;3.57;77.57;99691.28;1624601;86;21073;-71
2022/01/31 11:43:59;;;;;;;22.25;5.35;;;;;;;3.58;77.55;99691.70;1620392;86;20187;-71
2022/01/31 11:46:44;;;;;;;;;;;;;;;3.56;77.51;99692.14;1625687;86;21106;-71
2022/01/31 11:49:43;;;;;;;25.35;11.38;;;;;;;3.59;77.63;99698.09;1622642;86;20223;-71
2022/01/31 11:52:46;;;;;;;30.27;11.45;;;;;;;3.61;77.61;99696.38;1620954;86;21128;-70
2022/01/31 11:55:38;;;;;;;132.07;58.15;;;;;;;3.65;77.66;99690.80;1622962;86;21119;-70
2022/01/31 11:58:23;;;;;;;30.35;9.45;;;;;;;3.62;77.54;99691.70;1625288;86;21447;-70
2022/01/31 12:01:08;;;;;;;32.85;8.48;;;;;;;3.63;77.59;99681.05;1617654;86;21605;-70
2022/01/31 12:03:57;;;;;;;20.12;5.15;;;;;;;3.63;77.55;99678.48;1622994;87;21323;-69
2022/01/31 12:06:42;;;;;;;26.70;5.30;;;;;;;3.59;77.51;99680.20;1621192;86;20928;-69
2022/01/31 12:09:30;;;;;;;24.85;4.75;;;;;;;3.60;77.64;99666.99;1622377;87;20959;-69
2022/01/31 12:13:22;;;;;;;22.62;7.75;;;;;;;3.62;77.59;99672.52;1625724;86;20972;-69
2022/01/31 12:18:40;;;;;;;22.35;4.78;;;;;;;3.65;77.58;99662.25;1623733;86;20979;-69
2022/01/31 12:24:39;;;;;;;25.45;4.87;;;;;;;3.63;77.53;99658.89;1624290;88;21443;-69
2022/01/31 12:27:29;;;;;;;15.20;4.25;;;;;;;3.64;77.62;99662.26;1625950;87;20978;-69
2022/01/31 12:30:19;;;;;;;19.95;3.75;;;;;;;3.65;77.57;99660.98;1625505;86;21029;-70
2022/01/31 12:33:03;;;;;;;16.95;4.22;;;;;;;3.67;77.55;99667.36;1627208;86;20949;-70
2022/01/31 12:35:51;;;;;;;20.65;4.60;;;;;;;3.64;77.50;99662.26;1603224;87;21537;-70
2022/01/31 12:38:35;;;;;;;27.37;5.37;;;;;;;3.63;77.54;99656.33;1632543;86;20927;-70
2022/01/31 12:41:32;;;;;;;25.48;5.62;;;;;;;3.64;77.57;99660.98;1634624;86;20975;-71
2022/01/31 12:44:38;;;;;;;28.23;5.47;;;;;;;3.66;77.62;99667.79;1633611;84;21912;-73
2022/01/31 12:47:23;;;;;;;24.45;4.05;;;;;;;3.68;77.64;99666.94;1632148;86;20941;-71
2022/01/31 12:50:23;;;;;;;19.48;4.00;;;;;;;3.66;77.50;99663.11;1587725;87;20990;-74
2022/01/31 12:56:26;;;;;;;21.35;4.92;;;;;;;3.54;77.49;99665.73;1606226;87;20937;-75
2022/01/31 12:59:15;;;;;;;18.10;4.37;;;;;;;3.48;77.50;99667.88;1609432;87;21014;-76
2022/01/31 13:02:06;;;;;;;23.62;4.25;;;;;;;3.47;77.53;99675.55;1632805;85;20968;-72
2022/01/31 13:04:51;;;;;;;21.52;6.58;;;;;;;3.43;77.53;99680.23;1631477;86;20970;-76
2022/01/31 13:07:35;;;;;;;26.02;5.15;;;;;;;3.44;77.61;99680.23;1625606;86;21502;-78
2022/01/31 13:10:20;;;;;;;24.23;4.25;;;;;;;3.43;77.54;99677.26;1630347;86;20926;-78
2022/01/31 13:13:04;;;;;;;30.50;5.33;;;;;;;3.43;77.58;99679.81;1623549;86;21073;-79
2022/01/31 13:15:52;;;;;;;17.67;5.50;;;;;;;3.43;77.57;99681.09;1634833;86;20957;-72
2022/01/31 13:18:38;;;;;;;24.20;5.33;;;;;;;3.40;77.53;99678.97;1637520;85;21461;-71
2022/01/31 13:21:23;;;;;;;27.80;4.37;;;;;;;3.34;77.47;99672.16;1630261;86;21410;-71
2022/01/31 13:24:08;;;;;;;24.37;4.20;;;;;;;3.32;77.63;99668.76;1628940;86;21000;-71
2022/01/31 13:26:57;;;;;;;23.30;5.62;;;;;;;3.34;77.72;99669.61;1630697;86;47163;-71
2022/01/31 13:29:52;;;;;;;22.37;5.30;;;;;;;3.35;77.79;99665.34;1634340;86;21138;-71
2022/01/31 13:32:38;;;;;;;17.32;4.17;;;;;;;3.36;77.81;99670.45;1627354;84;21669;-71
2022/01/31 13:35:26;;;;;;;22.22;3.55;;;;;;;3.37;77.73;99678.97;1628519;86;21535;-66
2022/01/31 13:38:12;;;;;;;31.27;4.60;;;;;;;3.36;77.77;99684.94;1626907;86;20951;-66